createdAt,value
2018-03-21T00:00:27.111Z,144.53
2018-03-21T00:02:54.726Z,136.87
2018-03-21T00:05:22.321Z,167.40
2018-03-21T00:07:49.915Z,160.40
2018-03-21T00:10:17.559Z,179.40
2018-03-21T00:12:45.150Z,209.23
2018-03-21T00:15:12.745Z,152.80
2018-03-21T00:17:40.427Z,325.90
2018-03-21T00:20:08.003Z,128.77
2018-03-21T00:22:35.590Z,127.70
2018-03-21T00:25:03.212Z,163.27
2018-03-21T00:27:30.805Z,130.67
2018-03-21T00:29:58.392Z,117.83
2018-03-21T00:32:26.010Z,142.20
2018-03-21T00:34:53.605Z,124.03
2018-03-21T00:37:21.193Z,124.67
2018-03-21T00:39:48.835Z,115.27
2018-03-21T00:42:16.429Z,123.17
2018-03-21T00:44:44.008Z,127.60
2018-03-21T00:47:11.633Z,120.33
2018-03-21T00:49:39.229Z,126.70
2018-03-21T00:52:06.812Z,116.03
2018-03-21T00:54:34.460Z,141.93
2018-03-21T00:57:02.048Z,127.30
2018-03-21T00:59:29.647Z,159.20
2018-03-21T01:01:57.288Z,201.67
2018-03-21T01:04:24.898Z,402.10
2018-03-21T01:06:52.480Z,380.37
2018-03-21T01:09:20.104Z,160.03
2018-03-21T01:11:47.697Z,144.60
2018-03-21T01:14:15.288Z,141.67
2018-03-21T01:16:42.915Z,158.00
2018-03-21T01:19:10.504Z,247.80
2018-03-21T01:21:38.096Z,161.57
2018-03-21T01:24:05.758Z,402.50
2018-03-21T01:26:33.341Z,405.80
2018-03-21T01:29:00.936Z,330.13
2018-03-21T01:31:28.581Z,123.83
2018-03-21T01:33:56.185Z,216.17
2018-03-21T01:36:23.819Z,133.97
2018-03-21T01:38:51.484Z,151.77
2018-03-21T01:41:19.083Z,153.63
2018-03-21T01:43:46.668Z,133.73
2018-03-21T01:46:14.344Z,143.53
2018-03-21T01:48:41.954Z,131.53
2018-03-21T01:51:09.561Z,149.10
2018-03-21T01:53:37.192Z,119.57
2018-03-21T01:56:04.786Z,127.67
2018-03-21T01:58:32.386Z,119.50
2018-03-21T02:01:00.055Z,104.63
2018-03-21T02:03:27.662Z,93.33
2018-03-21T02:05:55.256Z,102.60
2018-03-21T02:08:22.886Z,107.13
2018-03-21T02:10:50.492Z,117.90
2018-03-21T02:13:18.092Z,119.77
2018-03-21T02:15:45.722Z,124.33
2018-03-21T02:18:13.313Z,128.23
2018-03-21T02:20:40.905Z,115.63
2018-03-21T02:23:08.531Z,139.20
2018-03-21T02:25:36.109Z,131.27
2018-03-21T02:28:03.693Z,128.07
2018-03-21T02:30:31.318Z,116.00
2018-03-21T02:32:58.902Z,126.40
2018-03-21T02:35:26.508Z,111.83
2018-03-21T02:37:54.152Z,127.50
2018-03-21T02:40:21.740Z,135.43
2018-03-21T02:42:49.330Z,135.40
2018-03-21T02:45:17.076Z,135.50
2018-03-21T02:47:44.671Z,121.30
2018-03-21T02:50:12.283Z,131.03
2018-03-21T02:52:39.968Z,125.07
2018-03-21T02:55:07.553Z,123.97
2018-03-21T02:57:35.193Z,131.23
2018-03-21T03:00:02.854Z,149.30
2018-03-21T03:02:30.458Z,126.07
2018-03-21T03:04:58.062Z,162.63
2018-03-21T03:07:25.697Z,191.57
2018-03-21T03:09:53.336Z,145.30
2018-03-21T03:12:20.929Z,310.40
2018-03-21T03:14:48.544Z,378.93
2018-03-21T03:17:16.137Z,417.93
2018-03-21T03:19:43.724Z,263.10
2018-03-21T03:22:11.373Z,489.53
2018-03-21T03:24:38.974Z,287.80
2018-03-21T03:27:06.571Z,452.60
2018-03-21T03:29:34.208Z,365.60
2018-03-21T03:32:01.811Z,210.10
2018-03-21T03:34:29.415Z,273.30
2018-03-21T03:36:57.055Z,250.83
2018-03-21T03:39:24.647Z,360.60
2018-03-21T03:41:52.240Z,301.43
2018-03-21T03:44:19.866Z,237.67
2018-03-21T03:46:47.456Z,210.00
2018-03-21T03:49:15.038Z,188.00
2018-03-21T03:51:42.668Z,156.17
2018-03-21T03:54:10.255Z,151.50
2018-03-21T03:56:37.857Z,138.07
2018-03-21T03:59:05.521Z,148.87
2018-03-21T04:01:33.122Z,135.43
2018-03-21T04:04:00.729Z,140.67
2018-03-21T04:06:28.350Z,150.23
2018-03-21T04:08:55.943Z,218.00
2018-03-21T04:11:23.545Z,162.47
2018-03-21T04:13:51.189Z,164.80
2018-03-21T04:16:18.780Z,174.80
2018-03-21T04:18:46.368Z,188.90
2018-03-21T04:21:14.047Z,176.30
2018-03-21T04:23:41.636Z,174.33
2018-03-21T04:26:09.216Z,167.13
2018-03-21T04:28:36.870Z,158.10
2018-03-21T04:31:04.442Z,158.37
2018-03-21T04:33:32.042Z,143.53
2018-03-21T04:35:59.680Z,120.90
2018-03-21T04:38:27.303Z,137.83
2018-03-21T04:40:54.911Z,107.10
2018-03-21T04:43:22.544Z,112.07
2018-03-21T04:45:50.165Z,118.70
2018-03-21T04:48:17.795Z,120.53
2018-03-21T04:50:45.476Z,110.80
2018-03-21T04:53:13.063Z,106.90
2018-03-21T04:55:40.655Z,92.67
2018-03-21T04:58:08.401Z,82.13
2018-03-21T05:00:35.993Z,94.37
2018-03-21T05:03:03.572Z,95.23
2018-03-21T05:05:31.204Z,98.07
2018-03-21T05:07:58.793Z,85.93
2018-03-21T05:10:26.388Z,111.67
2018-03-21T05:12:54.013Z,89.70
2018-03-21T05:15:21.629Z,87.77
2018-03-21T05:17:49.203Z,127.80
2018-03-21T05:20:16.867Z,134.23
2018-03-21T05:22:44.453Z,139.80
2018-03-21T05:25:12.049Z,145.33
2018-03-21T05:27:39.676Z,128.03
2018-03-21T05:30:07.283Z,109.23
2018-03-21T05:32:34.871Z,108.00
2018-03-21T05:35:02.529Z,105.77
2018-03-21T05:37:30.126Z,118.40
2018-03-21T05:39:57.731Z,96.60
2018-03-21T05:42:25.385Z,105.77
2018-03-21T05:44:52.979Z,103.27
2018-03-21T05:47:20.722Z,89.60
2018-03-21T05:49:49.335Z,103.10
2018-03-21T05:52:17.139Z,107.63
2018-03-21T05:54:44.731Z,117.40
2018-03-21T05:57:12.363Z,90.27
2018-03-21T05:59:39.950Z,89.90
2018-03-21T06:02:07.535Z,90.23
2018-03-21T06:04:35.156Z,80.40
2018-03-21T06:07:02.745Z,88.97
2018-03-21T06:09:30.332Z,80.27
2018-03-21T06:11:57.951Z,81.90
2018-03-21T06:14:25.534Z,79.20
2018-03-21T06:16:53.111Z,71.87
2018-03-21T06:19:20.728Z,96.57
2018-03-21T06:21:48.339Z,99.60
2018-03-21T06:24:15.942Z,103.23
2018-03-21T06:26:43.591Z,93.80
2018-03-21T06:29:11.170Z,102.00
2018-03-21T06:31:38.765Z,98.17
2018-03-21T06:34:06.389Z,91.90
2018-03-21T06:36:34.080Z,96.00
2018-03-21T06:39:01.711Z,87.37
2018-03-21T06:41:29.349Z,74.47
2018-03-21T06:43:56.942Z,73.80
2018-03-21T06:46:24.540Z,71.73
2018-03-21T06:48:52.264Z,65.23
2018-03-21T06:51:19.935Z,75.70
2018-03-21T06:53:47.522Z,74.30
2018-03-21T06:56:15.111Z,74.93
2018-03-21T06:58:42.785Z,71.73
2018-03-21T07:01:10.383Z,85.03
2018-03-21T07:03:37.977Z,90.03
2018-03-21T07:06:05.593Z,87.00
2018-03-21T07:08:33.205Z,72.33
2018-03-21T07:11:00.795Z,73.20
2018-03-21T07:16:42.166Z,82.63
2018-03-21T07:19:09.798Z,57.03
2018-03-21T07:21:37.391Z,56.07
2018-03-21T07:24:04.997Z,66.90
2018-03-21T07:26:32.633Z,86.07
2018-03-21T07:29:00.243Z,126.63
2018-03-21T07:31:27.906Z,99.03
2018-03-21T07:33:55.531Z,104.43
2018-03-21T07:36:23.130Z,109.33
2018-03-21T07:38:50.705Z,72.00
2018-03-21T07:41:18.334Z,121.47
2018-03-21T07:43:45.954Z,83.90
2018-03-21T07:46:13.548Z,111.27
2018-03-21T07:48:41.247Z,119.47
2018-03-21T07:51:08.870Z,131.10
2018-03-21T07:53:36.491Z,146.07
2018-03-21T07:56:04.117Z,137.73
2018-03-21T07:58:31.709Z,192.83
2018-03-21T08:00:59.344Z,153.00
2018-03-21T08:03:26.970Z,176.33
2018-03-21T08:05:54.552Z,96.10
2018-03-21T08:08:22.164Z,76.03
2018-03-21T08:10:49.818Z,94.30
2018-03-21T08:13:17.405Z,88.67
2018-03-21T08:15:45.003Z,79.63
2018-03-21T08:18:12.681Z,76.90
2018-03-21T08:20:40.320Z,70.20
2018-03-21T08:23:08.034Z,62.90
2018-03-21T08:25:35.653Z,56.50
2018-03-21T08:28:03.286Z,47.43
2018-03-21T08:30:30.876Z,48.43
2018-03-21T08:32:58.506Z,44.70
2018-03-21T08:35:26.099Z,44.40
2018-03-21T08:37:53.707Z,53.57
2018-03-21T08:40:21.342Z,66.37
2018-03-21T08:42:49.192Z,58.13
2018-03-21T08:45:16.790Z,52.00
2018-03-21T08:47:44.420Z,49.77
2018-03-21T08:50:12.018Z,40.33
2018-03-21T08:52:39.697Z,45.50
2018-03-21T08:55:07.458Z,47.43
2018-03-21T08:57:34.955Z,56.87
2018-03-21T09:00:02.567Z,46.37
2018-03-21T09:02:30.211Z,50.63
2018-03-21T09:04:57.803Z,52.40
2018-03-21T09:07:25.424Z,45.53
2018-03-21T09:09:53.069Z,33.57
2018-03-21T09:12:20.671Z,28.67
2018-03-21T09:14:48.263Z,27.20
2018-03-21T09:17:15.896Z,31.73
2018-03-21T09:19:43.499Z,32.40
2018-03-21T09:22:11.101Z,23.93
2018-03-21T09:24:38.763Z,24.27
2018-03-21T09:27:06.368Z,31.97
2018-03-21T09:29:33.968Z,29.77
2018-03-21T09:32:01.677Z,31.70
2018-03-21T09:34:29.254Z,45.07
2018-03-21T09:36:56.859Z,39.97
2018-03-21T09:39:24.500Z,52.97
2018-03-21T09:41:52.104Z,41.33
2018-03-21T09:44:20.718Z,52.53
2018-03-21T09:46:48.350Z,44.50
2018-03-21T09:49:15.947Z,46.90
2018-03-21T09:51:43.557Z,47.57
2018-03-21T09:54:11.205Z,41.60
2018-03-21T09:56:38.808Z,42.70
2018-03-21T09:59:06.406Z,46.70
2018-03-21T10:01:34.039Z,36.67
2018-03-21T10:04:01.643Z,46.30
2018-03-21T10:06:29.257Z,38.70
2018-03-21T10:08:56.891Z,47.73
2018-03-21T10:11:24.488Z,47.10
2018-03-21T10:13:52.100Z,38.43
2018-03-21T10:16:19.747Z,44.10
2018-03-21T10:18:47.346Z,50.73
2018-03-21T10:21:14.991Z,49.83
2018-03-21T10:23:42.652Z,37.70
2018-03-21T10:26:10.249Z,31.67
2018-03-21T10:28:37.841Z,32.37
2018-03-21T10:31:05.499Z,35.70
2018-03-21T10:33:33.144Z,41.70
2018-03-21T10:36:00.734Z,42.83
2018-03-21T10:38:28.405Z,46.47
2018-03-21T10:40:56.001Z,31.13
2018-03-21T10:43:23.626Z,31.27
2018-03-21T10:45:51.270Z,32.50
2018-03-21T10:48:18.870Z,42.40
2018-03-21T10:50:46.469Z,40.03
2018-03-21T10:53:14.100Z,37.53
2018-03-21T10:55:41.688Z,32.03
2018-03-21T10:58:09.287Z,48.17
2018-03-21T11:00:36.957Z,43.73
2018-03-21T11:03:04.600Z,32.70
2018-03-21T11:05:32.188Z,34.30
2018-03-21T11:07:59.819Z,36.80
2018-03-21T11:10:27.418Z,40.53
2018-03-21T11:12:55.000Z,32.10
2018-03-21T11:15:22.622Z,38.33
2018-03-21T11:17:50.217Z,52.30
2018-03-21T11:20:17.806Z,30.30
2018-03-21T11:22:45.426Z,31.03
2018-03-21T11:25:13.075Z,46.23
2018-03-21T11:27:40.649Z,36.80
2018-03-21T11:30:08.299Z,52.67
2018-03-21T11:32:35.903Z,35.00
2018-03-21T11:35:03.502Z,39.87
2018-03-21T11:37:31.146Z,49.03
2018-03-21T11:39:58.738Z,30.17
2018-03-21T11:42:26.332Z,33.60
2018-03-21T11:44:53.977Z,31.97
2018-03-21T11:47:21.621Z,30.33
2018-03-21T11:49:49.252Z,31.00
2018-03-21T11:52:16.884Z,34.30
2018-03-21T11:54:46.471Z,36.60
2018-03-21T11:57:14.067Z,32.50
2018-03-21T11:59:41.679Z,36.23
2018-03-21T12:02:09.267Z,25.87
2018-03-21T12:04:36.860Z,29.97
2018-03-21T12:07:04.475Z,34.00
2018-03-21T12:09:32.070Z,35.93
2018-03-21T12:11:59.687Z,42.30
2018-03-21T12:14:27.311Z,37.10
2018-03-21T12:16:54.900Z,36.00
2018-03-21T12:19:22.629Z,39.10
2018-03-21T12:21:50.263Z,45.10
2018-03-21T12:24:17.849Z,49.53
2018-03-21T12:26:45.446Z,52.17
2018-03-21T12:29:13.078Z,37.87
2018-03-21T12:31:40.675Z,46.33
2018-03-21T12:34:08.275Z,53.07
2018-03-21T12:36:36.018Z,51.77
2018-03-21T12:39:03.730Z,45.67
2018-03-21T12:41:31.321Z,54.20
2018-03-21T12:43:58.948Z,48.93
2018-03-21T12:46:26.543Z,56.90
2018-03-21T12:48:54.124Z,56.17
2018-03-21T12:51:21.778Z,56.70
2018-03-21T12:53:49.370Z,54.53
2018-03-21T12:56:17.039Z,44.37
2018-03-21T12:58:44.608Z,62.63
2018-03-21T13:01:12.206Z,57.47
2018-03-21T13:03:40.140Z,52.70
2018-03-21T13:06:07.765Z,52.93
2018-03-21T13:08:35.362Z,64.03
2018-03-21T13:11:03.026Z,69.07
2018-03-21T13:13:30.625Z,60.80
2018-03-21T13:15:58.223Z,76.33
2018-03-21T13:18:25.812Z,69.80
2018-03-21T13:20:53.426Z,80.00
2018-03-21T13:23:21.011Z,80.47
2018-03-21T13:25:48.607Z,76.47
2018-03-21T13:28:16.224Z,93.67
2018-03-21T13:30:43.831Z,88.80
2018-03-21T13:33:11.415Z,98.40
2018-03-21T13:35:39.045Z,97.43
2018-03-21T13:38:06.627Z,110.07
2018-03-21T13:40:34.219Z,116.63
2018-03-21T13:43:01.846Z,107.20
2018-03-21T13:45:29.423Z,98.00
2018-03-21T13:47:57.055Z,96.57
2018-03-21T13:50:24.748Z,94.07
2018-03-21T13:52:52.328Z,99.50
2018-03-21T13:55:19.923Z,103.70
2018-03-21T13:57:47.599Z,93.30
2018-03-21T14:00:15.188Z,115.30
2018-03-21T14:02:42.786Z,91.83
2018-03-21T14:05:10.402Z,79.67
2018-03-21T14:07:37.990Z,90.57
2018-03-21T14:10:05.579Z,95.30
2018-03-21T14:12:33.193Z,72.20
2018-03-21T14:15:00.926Z,80.10
2018-03-21T14:17:28.503Z,95.63
2018-03-21T14:19:56.113Z,81.17
2018-03-21T14:22:23.680Z,78.57
2018-03-21T14:24:51.272Z,87.50
2018-03-21T14:27:18.894Z,86.27
2018-03-21T14:29:46.478Z,84.90
2018-03-21T14:32:14.063Z,96.77
2018-03-21T14:34:41.695Z,119.17
2018-03-21T14:37:09.298Z,131.03
2018-03-21T14:39:36.983Z,120.77
2018-03-21T14:42:04.621Z,116.50
2018-03-21T14:44:32.214Z,126.63
2018-03-21T14:46:59.798Z,122.27
2018-03-21T14:49:27.449Z,112.87
2018-03-21T14:51:55.047Z,102.07
2018-03-21T14:54:22.632Z,117.13
2018-03-21T14:56:50.262Z,121.60
2018-03-21T14:59:17.859Z,170.03
2018-03-21T15:01:45.486Z,161.23
2018-03-21T15:04:13.107Z,130.07
2018-03-21T15:06:40.724Z,137.60
2018-03-21T15:09:08.361Z,142.20
2018-03-21T15:11:35.980Z,123.97
2018-03-21T15:14:03.566Z,125.13
2018-03-21T15:16:31.146Z,133.87
2018-03-21T15:18:58.791Z,154.93
2018-03-21T15:21:26.407Z,142.63
2018-03-21T15:23:54.002Z,161.93
2018-03-21T15:26:21.631Z,145.83
2018-03-21T15:28:49.270Z,136.20
2018-03-21T15:31:16.870Z,117.43
2018-03-21T15:33:44.499Z,129.17
2018-03-21T15:36:12.131Z,117.53
2018-03-21T15:38:39.747Z,124.33
2018-03-21T15:41:07.368Z,135.87
2018-03-21T15:43:35.147Z,139.30
2018-03-21T15:46:02.734Z,135.37
2018-03-21T15:48:30.371Z,224.37
2018-03-21T15:50:57.962Z,166.80
2018-03-21T15:53:25.547Z,184.77
2018-03-21T15:55:53.199Z,205.47
2018-03-21T15:58:20.875Z,154.87
2018-03-21T16:00:48.454Z,146.03
2018-03-21T16:03:16.087Z,181.27
2018-03-21T16:05:43.780Z,348.73
2018-03-21T16:08:11.374Z,218.47
2018-03-21T16:10:39.026Z,167.03
2018-03-21T16:13:06.628Z,221.30
2018-03-21T16:15:34.230Z,162.27
2018-03-21T16:18:01.853Z,191.03
2018-03-21T16:20:29.442Z,172.80
2018-03-21T16:22:57.316Z,154.07
2018-03-21T16:25:24.966Z,149.40
2018-03-21T16:27:52.550Z,181.40
2018-03-21T16:30:20.137Z,164.40
2018-03-21T16:32:47.771Z,158.27
2018-03-21T16:35:15.351Z,138.17
2018-03-21T16:37:42.939Z,147.23
2018-03-21T16:40:10.617Z,159.77
2018-03-21T16:42:38.218Z,141.17
2018-03-21T16:45:05.870Z,148.33
2018-03-21T16:47:33.502Z,121.93
2018-03-21T16:50:01.101Z,180.87
2018-03-21T16:52:28.691Z,159.27
2018-03-21T16:54:56.330Z,128.53
2018-03-21T16:57:23.905Z,165.83
2018-03-21T16:59:51.499Z,167.47
2018-03-21T17:02:19.131Z,178.83
2018-03-21T17:04:46.713Z,155.70
2018-03-21T17:07:14.312Z,127.70
2018-03-21T17:09:41.942Z,150.13
2018-03-21T17:12:09.531Z,155.63
2018-03-21T17:14:37.146Z,146.90
2018-03-21T17:17:04.780Z,132.20
2018-03-21T17:19:32.352Z,227.73
2018-03-21T17:21:59.927Z,201.37
2018-03-21T17:24:27.570Z,168.47
2018-03-21T17:26:55.172Z,160.90
2018-03-21T17:29:22.762Z,183.70
2018-03-21T17:31:50.396Z,391.77
2018-03-21T17:34:17.998Z,197.07
2018-03-21T17:36:45.580Z,183.50
2018-03-21T17:39:13.199Z,174.50
2018-03-21T17:41:40.787Z,197.67
2018-03-21T17:44:08.369Z,159.57
2018-03-21T17:46:35.991Z,132.93
2018-03-21T17:49:03.558Z,132.37
2018-03-21T17:51:31.147Z,134.40
2018-03-21T17:53:58.764Z,155.50
2018-03-21T17:56:26.366Z,154.70
2018-03-21T17:58:53.958Z,148.90
2018-03-21T18:01:21.583Z,137.33
2018-03-21T18:03:49.278Z,138.13
2018-03-21T18:06:16.917Z,142.00
2018-03-21T18:08:44.547Z,155.63
2018-03-21T18:11:12.166Z,140.53
2018-03-21T18:13:39.748Z,163.40
2018-03-21T18:16:07.373Z,126.43
2018-03-21T18:18:34.969Z,152.60
2018-03-21T18:21:02.562Z,147.10
2018-03-21T18:23:30.211Z,154.30
2018-03-21T18:25:57.826Z,128.93
2018-03-21T18:28:25.409Z,164.00
2018-03-21T18:30:53.031Z,166.43
2018-03-21T18:33:20.625Z,171.50
2018-03-21T18:35:48.235Z,177.23
2018-03-21T18:38:16.474Z,149.47
2018-03-21T18:40:44.081Z,163.03
2018-03-21T18:43:11.688Z,159.77
2018-03-21T18:45:39.323Z,150.97
2018-03-21T18:48:06.905Z,147.00
2018-03-21T18:50:34.497Z,157.90
2018-03-21T18:53:02.143Z,179.93
2018-03-21T18:55:31.542Z,209.23
2018-03-21T18:57:59.150Z,197.77
2018-03-21T19:00:26.797Z,177.53
2018-03-21T19:02:54.391Z,181.37
2018-03-21T19:05:22.048Z,187.23
2018-03-21T19:07:49.776Z,172.73
2018-03-21T19:10:17.435Z,161.63
2018-03-21T19:12:45.035Z,194.90
2018-03-21T19:15:12.683Z,165.97
2018-03-21T19:17:40.284Z,144.57
2018-03-21T19:20:07.902Z,143.40
2018-03-21T19:22:35.526Z,167.20
2018-03-21T19:25:03.138Z,153.37
2018-03-21T19:27:30.750Z,156.87
2018-03-21T19:29:58.367Z,180.87
2018-03-21T19:32:25.949Z,204.10
2018-03-21T19:34:53.541Z,184.47
2018-03-21T19:37:21.252Z,187.43
2018-03-21T19:39:48.900Z,189.30
2018-03-21T19:42:16.504Z,184.40
2018-03-21T19:44:44.135Z,169.90
2018-03-21T19:47:11.722Z,192.37
2018-03-21T19:49:39.336Z,190.07
2018-03-21T19:52:07.021Z,188.70
2018-03-21T19:54:34.612Z,184.57
2018-03-21T19:57:02.207Z,191.20
2018-03-21T19:59:29.861Z,192.10
2018-03-21T20:01:57.468Z,187.40
2018-03-21T20:04:25.067Z,191.63
2018-03-21T20:06:52.701Z,183.53
2018-03-21T20:09:20.305Z,191.33
2018-03-21T20:11:47.905Z,191.17
2018-03-21T20:14:15.591Z,219.07
2018-03-21T20:16:43.211Z,209.13
2018-03-21T20:19:10.815Z,181.60
2018-03-21T20:21:38.456Z,201.97
2018-03-21T20:24:06.067Z,203.00
2018-03-21T20:26:33.665Z,208.40
2018-03-21T20:29:01.304Z,203.77
2018-03-21T20:31:28.904Z,192.90
2018-03-21T20:33:56.498Z,186.90
2018-03-21T20:36:24.185Z,163.33
2018-03-21T20:38:51.789Z,172.03
2018-03-21T20:41:19.386Z,210.50
2018-03-21T20:43:47.010Z,190.43
2018-03-21T20:46:14.608Z,184.07
2018-03-21T20:48:42.197Z,179.67
2018-03-21T20:51:09.826Z,205.70
2018-03-21T20:53:37.418Z,187.73
2018-03-21T20:56:05.023Z,193.87
2018-03-21T20:58:32.647Z,146.60
2018-03-21T21:01:00.242Z,183.53
2018-03-21T21:03:27.862Z,174.87
2018-03-21T21:05:55.559Z,173.20
2018-03-21T21:08:23.166Z,175.03
2018-03-21T21:10:50.752Z,154.57
2018-03-21T21:13:18.373Z,155.33
2018-03-21T21:15:45.967Z,156.13
2018-03-21T21:18:13.573Z,160.43
2018-03-21T21:20:41.198Z,155.73
2018-03-21T21:23:08.803Z,134.47
2018-03-21T21:25:36.506Z,130.77
2018-03-21T21:28:04.138Z,145.70
2018-03-21T21:30:31.730Z,127.20
2018-03-21T21:32:59.367Z,144.43
2018-03-21T21:35:27.004Z,124.03
2018-03-21T21:37:54.585Z,125.77
2018-03-21T21:40:22.180Z,140.10
2018-03-21T21:42:49.818Z,123.53
2018-03-21T21:45:17.438Z,134.03
2018-03-21T21:47:45.072Z,140.80
2018-03-21T21:50:12.701Z,146.53
2018-03-21T21:52:40.306Z,143.20
2018-03-21T21:55:07.903Z,155.10
2018-03-21T21:57:35.607Z,141.20
2018-03-21T22:00:03.208Z,144.23
2018-03-21T22:02:30.806Z,156.20
2018-03-21T22:04:58.438Z,156.23
2018-03-21T22:07:26.022Z,131.90
2018-03-21T22:09:53.609Z,134.77
2018-03-21T22:12:24.123Z,152.73
2018-03-21T22:14:51.707Z,171.43
2018-03-21T22:17:19.298Z,126.00
2018-03-21T22:19:46.938Z,137.70
2018-03-21T22:22:14.530Z,128.03
2018-03-21T22:24:42.130Z,131.00
2018-03-21T22:27:09.754Z,136.57
2018-03-21T22:29:37.341Z,140.50
2018-03-21T22:32:04.930Z,133.30
2018-03-21T22:34:32.567Z,131.07
2018-03-21T22:37:00.179Z,121.50
2018-03-21T22:39:27.784Z,146.20
2018-03-21T22:41:55.425Z,129.33
2018-03-21T22:44:23.022Z,133.27
2018-03-21T22:46:50.623Z,127.83
2018-03-21T22:49:18.256Z,123.57
2018-03-21T22:51:45.850Z,122.73
2018-03-21T22:54:13.450Z,119.70
2018-03-21T22:56:41.079Z,109.73
2018-03-21T22:59:08.684Z,116.63
2018-03-21T23:01:36.282Z,114.87
2018-03-21T23:04:03.922Z,109.70
2018-03-21T23:06:31.536Z,122.40
2018-03-21T23:08:59.128Z,107.60
2018-03-21T23:11:26.768Z,129.60
2018-03-21T23:13:54.364Z,111.20
2018-03-21T23:16:21.959Z,117.47
2018-03-21T23:18:49.571Z,125.20
2018-03-21T23:21:17.162Z,125.30
2018-03-21T23:23:44.747Z,120.83
2018-03-21T23:26:12.382Z,134.07
2018-03-21T23:28:39.976Z,118.27
2018-03-21T23:31:07.563Z,126.13
2018-03-21T23:33:35.223Z,134.40
2018-03-21T23:36:02.847Z,136.87
2018-03-21T23:38:30.447Z,129.67
2018-03-21T23:40:58.078Z,139.43
2018-03-21T23:43:25.687Z,137.20
2018-03-21T23:45:53.280Z,136.00
2018-03-21T23:48:20.921Z,147.63
2018-03-21T23:50:48.526Z,123.97
2018-03-21T23:53:16.116Z,125.97
2018-03-21T23:55:43.747Z,115.83
2018-03-21T23:58:11.346Z,126.67
